Time;durP1;ratioP1;P1;durP2;ratioP2;P2;SDS_P1;SDS_P2;PMS_P1;PMS_P2;Temp;Humidity;BMP_temperature;BMP_pressure;BME280_temperature;BME280_humidity;BME280_pressure;Samples;Min_cycle;Max_cycle;Signal;HPM_P1;HPM_P2
2021/05/12 00:01:41;;;;;;;28.80;18.70;;;13.50;88.00;;;;;;5075643;28;20032;-75
2021/05/12 00:04:07;;;;;;;31.98;19.88;;;13.50;88.00;;;;;;5072573;28;20040;-75
2021/05/12 00:06:32;;;;;;;32.45;21.17;;;13.50;87.80;;;;;;5062979;28;20090;-75
2021/05/12 00:08:58;;;;;;;33.08;20.67;;;13.50;87.70;;;;;;5062498;28;20024;-75
2021/05/12 00:11:24;;;;;;;25.67;18.67;;;13.50;87.60;;;;;;5057879;28;20546;-75
2021/05/12 00:13:50;;;;;;;25.50;20.20;;;13.50;87.60;;;;;;5068006;28;20123;-75
2021/05/12 00:16:17;;;;;;;34.30;19.77;;;13.50;87.70;;;;;;5075178;28;20108;-75
2021/05/12 00:18:45;;;;;;;28.08;18.92;;;13.40;87.70;;;;;;5068977;28;20110;-75
2021/05/12 00:21:14;;;;;;;28.70;19.08;;;13.40;87.70;;;;;;5076038;28;20470;-75
2021/05/12 00:23:45;;;;;;;36.55;21.02;;;13.40;87.70;;;;;;5066797;28;20025;-75
2021/05/12 00:26:11;;;;;;;38.08;21.60;;;13.40;87.60;;;;;;5058145;28;20094;-75
2021/05/12 00:28:37;;;;;;;29.88;19.45;;;13.40;87.60;;;;;;5056372;28;20486;-75
2021/05/12 00:31:02;;;;;;;27.23;19.63;;;13.40;88.30;;;;;;5056237;28;20033;-75
2021/05/12 00:33:28;;;;;;;31.05;20.35;;;13.40;87.80;;;;;;5065621;28;20483;-75
2021/05/12 00:35:55;;;;;;;35.08;19.48;;;13.40;87.80;;;;;;5075693;28;20036;-75
2021/05/12 00:38:20;;;;;;;29.63;20.55;;;13.40;87.80;;;;;;5059029;28;20029;-74
2021/05/12 00:40:46;;;;;;;28.85;19.00;;;13.40;88.00;;;;;;5069009;28;20039;-75
2021/05/12 00:43:11;;;;;;;29.55;21.20;;;13.40;88.00;;;;;;5058276;28;20060;-75
2021/05/12 00:45:37;;;;;;;30.58;19.80;;;13.40;88.00;;;;;;5037652;28;20053;-75
2021/05/12 00:48:03;;;;;;;34.10;21.10;;;13.40;87.90;;;;;;5038308;28;20662;-75
2021/05/12 00:50:29;;;;;;;27.70;18.58;;;13.50;87.70;;;;;;5049966;28;20041;-75
2021/05/12 00:52:55;;;;;;;33.60;22.95;;;13.40;87.50;;;;;;5051872;28;20029;-75
2021/05/12 00:55:22;;;;;;;33.25;19.80;;;13.40;87.40;;;;;;5055140;28;20029;-75
2021/05/12 00:57:48;;;;;;;31.63;19.65;;;13.40;87.40;;;;;;5040252;28;20060;-75
2021/05/12 01:00:17;;;;;;;32.35;20.77;;;13.40;87.50;;;;;;5037802;28;20362;-75
2021/05/12 01:02:42;;;;;;;36.60;21.23;;;13.30;87.40;;;;;;5055309;28;20029;-75
2021/05/12 01:05:21;;;;;;;32.00;20.83;;;13.30;87.20;;;;;;5054527;28;20440;-75
2021/05/12 01:07:48;;;;;;;29.50;19.45;;;13.30;87.40;;;;;;5050777;28;20535;-75
2021/05/12 01:10:13;;;;;;;29.50;19.63;;;13.30;87.40;;;;;;5053779;28;20075;-75
2021/05/12 01:12:39;;;;;;;29.15;19.05;;;13.30;87.50;;;;;;5053594;28;20498;-75
2021/05/12 01:15:06;;;;;;;30.45;20.75;;;13.30;87.50;;;;;;5035453;28;20022;-75
2021/05/12 01:17:32;;;;;;;30.77;19.70;;;13.30;87.40;;;;;;5048148;28;20033;-75
2021/05/12 01:19:58;;;;;;;25.70;19.10;;;13.20;87.40;;;;;;5055208;28;20458;-75
2021/05/12 01:22:23;;;;;;;24.38;18.58;;;13.20;87.40;;;;;;5033133;28;20609;-75
2021/05/12 01:24:49;;;;;;;31.50;19.85;;;13.20;87.50;;;;;;5052216;28;20044;-75
2021/05/12 01:27:14;;;;;;;30.05;19.10;;;13.20;87.60;;;;;;5047655;28;20458;-75
2021/05/12 01:29:40;;;;;;;30.33;20.10;;;13.20;87.50;;;;;;5055049;28;20036;-75
2021/05/12 01:32:06;;;;;;;26.92;17.42;;;13.20;87.70;;;;;;5049470;28;20029;-75
2021/05/12 01:34:32;;;;;;;29.33;19.10;;;13.20;87.70;;;;;;5054123;28;20112;-75
2021/05/12 01:36:58;;;;;;;28.67;18.23;;;13.20;87.60;;;;;;5053384;28;20116;-75
2021/05/12 01:39:24;;;;;;;29.17;18.48;;;13.20;87.60;;;;;;5037299;28;20025;-75
2021/05/12 01:41:49;;;;;;;30.73;19.38;;;13.20;87.70;;;;;;5035942;28;20028;-75
2021/05/12 01:44:16;;;;;;;25.27;17.30;;;13.20;87.80;;;;;;5037029;28;20065;-75
2021/05/12 01:46:46;;;;;;;27.05;17.58;;;13.20;87.80;;;;;;5054305;28;20064;-75
2021/05/12 01:49:12;;;;;;;26.60;17.17;;;13.10;88.00;;;;;;5054369;28;20013;-75
2021/05/12 01:51:39;;;;;;;31.10;16.83;;;13.20;88.10;;;;;;5053913;28;20083;-75
2021/05/12 01:54:07;;;;;;;27.52;15.13;;;13.20;88.20;;;;;;5047251;28;20482;-75
2021/05/12 01:56:37;;;;;;;21.55;14.80;;;13.20;88.20;;;;;;5054497;28;20064;-75
2021/05/12 01:59:03;;;;;;;25.08;14.52;;;13.20;88.20;;;;;;5052071;28;20056;-75
2021/05/12 02:01:29;;;;;;;20.33;14.02;;;13.20;88.20;;;;;;5054512;28;20029;-75
2021/05/12 02:03:55;;;;;;;22.90;14.95;;;13.20;88.20;;;;;;5053177;28;20037;-75
2021/05/12 02:06:21;;;;;;;23.30;14.75;;;13.10;88.20;;;;;;5054445;28;20493;-75
2021/05/12 02:08:46;;;;;;;23.42;14.23;;;13.10;88.20;;;;;;5053779;28;20493;-75
2021/05/12 02:11:12;;;;;;;22.95;13.73;;;13.20;88.30;;;;;;5051599;28;20469;-75
2021/05/12 02:13:37;;;;;;;23.02;13.45;;;13.20;88.20;;;;;;5045305;28;20033;-75
2021/05/12 02:16:06;;;;;;;22.35;14.05;;;13.10;88.10;;;;;;5033164;28;20032;-75
2021/05/12 02:18:32;;;;;;;23.90;13.32;;;13.20;88.10;;;;;;5045680;28;20108;-75
2021/05/12 02:20:58;;;;;;;22.67;13.65;;;13.10;88.00;;;;;;5053405;28;20033;-75
2021/05/12 02:23:25;;;;;;;21.02;14.45;;;13.20;88.10;;;;;;5048701;28;20044;-75
2021/05/12 02:25:50;;;;;;;20.77;12.77;;;13.20;88.10;;;;;;5041848;28;20422;-75
2021/05/12 02:28:16;;;;;;;19.95;14.27;;;13.20;88.10;;;;;;5050202;28;20090;-75
2021/05/12 02:30:43;;;;;;;22.17;14.10;;;13.10;88.00;;;;;;5053506;28;20037;-75
2021/05/12 02:33:09;;;;;;;22.90;14.30;;;13.10;88.00;;;;;;5037342;28;20372;-75
2021/05/12 02:35:35;;;;;;;23.00;14.25;;;13.10;88.20;;;;;;5048701;28;20044;-75
2021/05/12 02:38:02;;;;;;;22.17;13.75;;;13.10;88.30;;;;;;5048921;28;20029;-75
2021/05/12 02:40:28;;;;;;;23.50;14.05;;;13.10;88.30;;;;;;5053133;28;20037;-75
2021/05/12 02:42:55;;;;;;;24.33;14.70;;;13.10;88.20;;;;;;5043528;28;20083;-75
2021/05/12 02:45:21;;;;;;;22.20;14.52;;;13.10;88.80;;;;;;5076980;28;20048;-75
2021/05/12 02:48:00;;;;;;;27.55;15.50;;;13.10;88.40;;;;;;5065829;28;20397;-75
2021/05/12 02:50:27;;;;;;;23.48;14.60;;;13.00;88.50;;;;;;5100519;28;20040;-75
2021/05/12 02:52:53;;;;;;;25.83;14.85;;;13.00;88.50;;;;;;5083091;28;20024;-75
2021/05/12 02:55:19;;;;;;;24.85;15.52;;;13.10;88.40;;;;;;5093613;28;20015;-75
2021/05/12 02:57:45;;;;;;;18.35;13.30;;;13.00;88.50;;;;;;5075171;28;20098;-75
2021/05/12 03:00:13;;;;;;;27.55;15.48;;;13.00;88.60;;;;;;5092323;28;20024;-75
2021/05/12 03:02:42;;;;;;;24.27;15.07;;;13.00;88.70;;;;;;5093254;28;20115;-75
2021/05/12 03:05:08;;;;;;;25.17;13.77;;;13.00;88.70;;;;;;5088547;28;20028;-75
2021/05/12 03:07:34;;;;;;;22.85;13.88;;;13.00;88.60;;;;;;5079339;28;20061;-75
2021/05/12 03:10:00;;;;;;;23.42;15.73;;;13.00;88.70;;;;;;5093427;28;20103;-75
2021/05/12 03:12:25;;;;;;;21.55;14.93;;;13.00;88.70;;;;;;5092252;28;20036;-75
2021/05/12 03:14:51;;;;;;;21.98;13.90;;;13.00;88.70;;;;;;5075213;28;20035;-75
2021/05/12 03:17:17;;;;;;;21.45;15.85;;;13.00;88.80;;;;;;5092147;28;20020;-75
2021/05/12 03:19:42;;;;;;;23.40;16.45;;;13.00;88.80;;;;;;5073954;28;20058;-75
2021/05/12 03:22:08;;;;;;;27.63;14.98;;;13.00;89.40;;;;;;5074905;28;20032;-75
2021/05/12 03:24:33;;;;;;;28.70;17.67;;;13.00;88.70;;;;;;5090331;28;20089;-75
2021/05/12 03:26:59;;;;;;;23.27;15.57;;;13.00;88.70;;;;;;5074919;28;20103;-75
2021/05/12 03:29:25;;;;;;;26.50;16.05;;;13.00;88.70;;;;;;5073430;28;20392;-75
2021/05/12 03:31:50;;;;;;;23.65;16.48;;;13.00;88.80;;;;;;5091976;28;20028;-75
2021/05/12 03:34:16;;;;;;;22.27;15.10;;;12.90;88.80;;;;;;5069253;28;20044;-75
2021/05/12 03:36:41;;;;;;;27.27;16.70;;;12.90;88.90;;;;;;5054676;28;20052;-75
2021/05/12 03:39:07;;;;;;;26.23;16.70;;;13.00;89.00;;;;;;5087758;28;20107;-75
2021/05/12 03:41:33;;;;;;;24.75;16.70;;;13.00;89.00;;;;;;5088830;28;20032;-75
2021/05/12 03:43:58;;;;;;;23.60;16.60;;;12.90;88.90;;;;;;5071231;28;20056;-75
2021/05/12 03:46:24;;;;;;;21.48;15.43;;;12.90;88.90;;;;;;5084530;28;20047;-75
2021/05/12 03:48:49;;;;;;;29.25;17.23;;;12.90;89.00;;;;;;5070861;28;20029;-75
2021/05/12 03:51:15;;;;;;;26.02;16.42;;;12.90;89.00;;;;;;5062820;28;20047;-75
2021/05/12 03:53:41;;;;;;;24.05;16.15;;;12.90;89.00;;;;;;5051441;28;20029;-75
2021/05/12 03:56:07;;;;;;;26.27;17.17;;;12.90;89.10;;;;;;5063393;28;20108;-75
2021/05/12 03:58:32;;;;;;;30.40;16.33;;;12.90;89.00;;;;;;5071261;28;20036;-75
2021/05/12 04:00:59;;;;;;;24.75;16.02;;;12.90;89.20;;;;;;5068326;28;20020;-75
2021/05/12 04:03:28;;;;;;;24.77;16.77;;;12.90;89.20;;;;;;5069592;28;20040;-75
2021/05/12 04:05:54;;;;;;;25.25;17.38;;;12.90;89.10;;;;;;5064280;28;20044;-75
2021/05/12 04:08:20;;;;;;;24.30;17.08;;;12.90;89.00;;;;;;5055491;28;20040;-75
2021/05/12 04:10:46;;;;;;;24.98;15.18;;;12.90;89.10;;;;;;5071743;28;20074;-75
2021/05/12 04:13:11;;;;;;;27.10;16.40;;;12.90;89.10;;;;;;5087128;28;20043;-75
2021/05/12 04:15:37;;;;;;;26.45;16.48;;;12.90;89.10;;;;;;5072095;28;20059;-75
2021/05/12 04:18:02;;;;;;;28.10;17.00;;;12.90;89.20;;;;;;5072167;28;20067;-75
2021/05/12 04:20:28;;;;;;;25.55;17.60;;;12.90;89.30;;;;;;5072181;28;20063;-75
2021/05/12 04:22:54;;;;;;;27.38;16.83;;;12.90;89.30;;;;;;5068474;28;20036;-75
2021/05/12 04:25:22;;;;;;;25.98;15.48;;;12.90;89.30;;;;;;5071065;28;20393;-75
2021/05/12 04:27:49;;;;;;;28.23;17.20;;;12.90;89.40;;;;;;5054740;28;20066;-75
2021/05/12 04:30:17;;;;;;;27.38;17.35;;;12.90;89.30;;;;;;5069281;28;20033;-75
2021/05/12 04:32:43;;;;;;;27.77;15.73;;;12.90;89.30;;;;;;5071602;28;20032;-75
2021/05/12 04:35:14;;;;;;;24.90;14.70;;;12.90;89.30;;;;;;5069908;28;20031;-75
2021/05/12 04:37:40;;;;;;;20.92;15.27;;;12.90;89.30;;;;;;5072210;28;20024;-75
2021/05/12 04:40:08;;;;;;;26.77;17.58;;;12.90;89.40;;;;;;5060270;28;20035;-75
2021/05/12 04:42:34;;;;;;;19.75;14.70;;;12.90;89.40;;;;;;5059240;28;20087;-75
2021/05/12 04:44:59;;;;;;;25.80;16.80;;;12.90;89.40;;;;;;5066595;28;20186;-75
2021/05/12 04:47:26;;;;;;;24.58;15.93;;;13.00;89.50;;;;;;5075679;28;20037;-75
2021/05/12 04:49:52;;;;;;;20.73;15.55;;;13.00;89.60;;;;;;5058037;28;20110;-75
2021/05/12 04:52:17;;;;;;;24.52;17.25;;;12.90;89.50;;;;;;5072343;28;20062;-75
2021/05/12 04:54:43;;;;;;;23.08;16.48;;;13.00;89.60;;;;;;5067162;28;20039;-75
2021/05/12 04:57:08;;;;;;;28.30;18.60;;;13.00;89.60;;;;;;5073365;28;20384;-75
2021/05/12 04:59:34;;;;;;;24.05;15.07;;;13.00;89.60;;;;;;5074253;28;20036;-75
2021/05/12 05:02:02;;;;;;;26.55;17.23;;;13.10;89.80;;;;;;5075403;28;20028;-75
2021/05/12 05:04:28;;;;;;;25.80;15.68;;;13.10;89.70;;;;;;5073554;28;20029;-75
2021/05/12 05:06:53;;;;;;;22.70;15.73;;;13.10;89.70;;;;;;5072925;28;20033;-75
2021/05/12 05:09:19;;;;;;;27.08;17.60;;;13.20;89.60;;;;;;5075219;28;20043;-75
2021/05/12 05:11:44;;;;;;;23.75;15.77;;;13.20;89.50;;;;;;5049208;28;20029;-75
2021/05/12 05:14:12;;;;;;;24.08;14.77;;;13.20;89.30;;;;;;5101079;28;20033;-74
2021/05/12 05:16:37;;;;;;;27.02;16.10;;;13.20;89.30;;;;;;5073772;28;20520;-74
2021/05/12 05:19:03;;;;;;;22.98;14.82;;;13.20;89.10;;;;;;5070865;28;20031;-74
2021/05/12 05:21:29;;;;;;;22.88;15.20;;;13.30;89.20;;;;;;5070630;28;20024;-74
2021/05/12 05:23:55;;;;;;;24.70;16.27;;;13.20;89.20;;;;;;5075111;28;20108;-74
2021/05/12 05:26:21;;;;;;;21.13;15.38;;;13.30;89.10;;;;;;5069721;28;20036;-75
2021/05/12 05:28:46;;;;;;;22.73;14.50;;;13.30;88.90;;;;;;5074375;28;20048;-74
2021/05/12 05:31:12;;;;;;;18.60;13.27;;;13.30;89.00;;;;;;5074414;28;20013;-74
2021/05/12 05:33:38;;;;;;;18.13;13.30;;;13.40;89.10;;;;;;5061374;28;20061;-74
2021/05/12 05:36:04;;;;;;;16.40;12.73;;;13.40;88.90;;;;;;5056754;28;20029;-74
2021/05/12 05:38:30;;;;;;;24.13;14.40;;;13.40;88.70;;;;;;5063678;28;20029;-74
2021/05/12 05:40:55;;;;;;;19.77;13.27;;;13.40;88.50;;;;;;5062264;28;20031;-75
2021/05/12 05:43:21;;;;;;;22.45;12.73;;;13.40;88.40;;;;;;5074970;28;20059;-76
2021/05/12 05:45:47;;;;;;;17.42;12.80;;;13.40;88.30;;;;;;5072591;28;20136;-75
2021/05/12 05:48:12;;;;;;;18.90;13.00;;;13.30;88.30;;;;;;5073580;28;20078;-75
2021/05/12 05:50:38;;;;;;;17.65;11.93;;;13.30;88.40;;;;;;5073631;28;20070;-75
2021/05/12 05:53:04;;;;;;;20.15;12.10;;;13.30;88.50;;;;;;5066907;28;20025;-75
2021/05/12 05:55:30;;;;;;;19.92;12.40;;;13.30;88.30;;;;;;5111799;27;20101;-75
2021/05/12 05:57:56;;;;;;;15.25;11.57;;;13.30;88.10;;;;;;5086953;28;20031;-75
2021/05/12 06:00:22;;;;;;;19.75;11.65;;;13.40;87.80;;;;;;5073351;28;20432;-75
2021/05/12 06:02:48;;;;;;;21.98;12.52;;;13.50;87.60;;;;;;5073290;28;20040;-75
2021/05/12 06:05:13;;;;;;;18.85;11.60;;;13.50;87.20;;;;;;5073963;28;20032;-75
2021/05/12 06:07:40;;;;;;;18.92;12.18;;;13.50;87.00;;;;;;5074251;28;20362;-75
2021/05/12 06:10:07;;;;;;;19.52;11.90;;;13.60;86.90;;;;;;5074288;28;20082;-75
2021/05/12 06:12:33;;;;;;;20.02;11.48;;;13.60;86.60;;;;;;5074154;28;20059;-75
2021/05/12 06:14:59;;;;;;;21.90;11.38;;;13.70;86.20;;;;;;5061400;28;20486;-75
2021/05/12 06:17:26;;;;;;;18.85;12.07;;;13.70;85.70;;;;;;5074226;28;20046;-75
2021/05/12 06:19:51;;;;;;;18.75;11.13;;;13.80;85.50;;;;;;5074141;28;20028;-75
2021/05/12 06:22:17;;;;;;;18.60;10.52;;;13.80;85.10;;;;;;5074085;28;20422;-75
2021/05/12 06:24:43;;;;;;;18.08;10.98;;;13.80;84.60;;;;;;5072868;28;20020;-75
2021/05/12 06:27:10;;;;;;;19.60;10.73;;;13.90;84.10;;;;;;5072995;28;20025;-76
2021/05/12 06:29:37;;;;;;;15.30;10.40;;;13.90;83.40;;;;;;5086256;28;20071;-75
2021/05/12 06:32:04;;;;;;;17.33;10.32;;;13.90;82.90;;;;;;5054010;28;20021;-75
2021/05/12 06:34:30;;;;;;;21.92;10.63;;;13.90;83.10;;;;;;5053926;28;20021;-75
2021/05/12 06:36:56;;;;;;;19.42;10.55;;;14.00;82.50;;;;;;5064785;28;20028;-75
2021/05/12 06:39:21;;;;;;;18.98;10.18;;;14.10;82.20;;;;;;5072460;28;20534;-75
2021/05/12 06:41:47;;;;;;;24.00;11.32;;;14.20;82.40;;;;;;5072453;28;20028;-75
2021/05/12 06:44:12;;;;;;;20.50;10.23;;;14.20;81.50;;;;;;5076447;28;20055;-75
2021/05/12 06:46:38;;;;;;;16.00;9.48;;;14.40;81.70;;;;;;5058347;28;20063;-75
2021/05/12 06:49:03;;;;;;;18.23;9.80;;;14.50;81.30;;;;;;5075753;28;20028;-75
2021/05/12 06:51:29;;;;;;;23.80;9.93;;;14.60;80.70;;;;;;5076276;28;20496;-75
2021/05/12 06:53:55;;;;;;;17.92;9.20;;;14.70;80.70;;;;;;5093294;28;20036;-75
2021/05/12 06:56:20;;;;;;;14.35;8.60;;;14.80;80.10;;;;;;5086349;28;20486;-75
2021/05/12 06:58:46;;;;;;;18.45;8.63;;;14.90;79.30;;;;;;5089047;28;20055;-75
2021/05/12 07:01:15;;;;;;;21.80;10.27;;;14.90;78.90;;;;;;5075295;28;20024;-75
2021/05/12 07:03:40;;;;;;;13.88;9.05;;;15.00;78.40;;;;;;5093422;28;20055;-76
2021/05/12 07:06:06;;;;;;;14.05;9.02;;;15.10;78.10;;;;;;5093317;28;20481;-75
2021/05/12 07:08:37;;;;;;;13.00;9.13;;;15.20;78.00;;;;;;5090822;28;20028;-75
2021/05/12 07:11:03;;;;;;;18.02;9.20;;;15.30;77.60;;;;;;5090190;28;20033;-75
2021/05/12 07:13:28;;;;;;;17.50;8.90;;;15.40;77.10;;;;;;5091916;28;20118;-75
2021/05/12 07:15:54;;;;;;;17.17;9.43;;;15.50;75.70;;;;;;5093424;28;20103;-75
2021/05/12 07:18:20;;;;;;;14.57;8.30;;;15.50;75.70;;;;;;5075139;28;20495;-75
2021/05/12 07:20:45;;;;;;;13.77;8.50;;;15.70;75.20;;;;;;5075087;28;20024;-75
2021/05/12 07:23:20;;;;;;;16.73;8.90;;;15.70;75.10;;;;;;5092607;28;20435;-75
2021/05/12 07:25:48;;;;;;;12.05;7.45;;;15.80;74.70;;;;;;5092611;28;20111;-75
2021/05/12 07:28:15;;;;;;;15.13;8.38;;;15.90;74.80;;;;;;5092977;28;20388;-75
2021/05/12 07:30:42;;;;;;;15.63;9.02;;;16.00;74.20;;;;;;5092854;28;20465;-75
2021/05/12 07:33:08;;;;;;;17.42;8.05;;;16.10;73.60;;;;;;5091415;28;20101;-75
2021/05/12 07:35:33;;;;;;;15.93;7.93;;;16.10;73.20;;;;;;5092811;28;20469;-75
2021/05/12 07:37:59;;;;;;;13.77;7.85;;;16.30;72.20;;;;;;5091683;28;20536;-76
2021/05/12 07:40:28;;;;;;;16.23;8.23;;;16.30;72.30;;;;;;5091071;28;20032;-75
2021/05/12 07:42:56;;;;;;;11.20;7.18;;;16.40;71.70;;;;;;5081890;28;20031;-75
2021/05/12 07:45:22;;;;;;;13.65;8.07;;;16.50;71.40;;;;;;5085815;28;20036;-75
2021/05/12 07:47:48;;;;;;;14.02;7.88;;;16.50;70.90;;;;;;5074801;28;20024;-75
2021/05/12 07:50:14;;;;;;;11.82;7.63;;;16.50;71.10;;;;;;5092632;28;20523;-75
2021/05/12 07:52:39;;;;;;;11.35;7.18;;;16.60;71.10;;;;;;5074612;28;20040;-75
2021/05/12 07:55:06;;;;;;;15.80;8.00;;;16.80;71.00;;;;;;5074572;28;20499;-75
2021/05/12 07:57:31;;;;;;;13.38;7.95;;;16.90;70.60;;;;;;5091938;28;20024;-76
2021/05/12 07:59:57;;;;;;;15.68;7.60;;;17.00;69.70;;;;;;5058163;28;20389;-76
2021/05/12 08:02:41;;;;;;;12.07;7.43;;;17.10;68.50;;;;;;5070884;28;20394;-75
2021/05/12 08:05:07;;;;;;;15.85;7.38;;;17.10;67.60;;;;;;5078235;28;20024;-76
2021/05/12 08:07:33;;;;;;;12.88;7.10;;;17.20;68.10;;;;;;5091791;28;20122;-75
2021/05/12 08:09:59;;;;;;;9.70;6.72;;;17.30;67.60;;;;;;5091794;28;20123;-76
2021/05/12 08:12:25;;;;;;;11.65;6.28;;;17.50;67.50;;;;;;5092766;28;20109;-76
2021/05/12 08:14:51;;;;;;;16.63;6.32;;;17.60;66.90;;;;;;5092552;28;20465;-76
2021/05/12 08:17:16;;;;;;;12.52;6.18;;;17.70;66.20;;;;;;5078564;28;20052;-75
2021/05/12 08:19:42;;;;;;;12.75;6.07;;;17.70;65.20;;;;;;5092028;28;20477;-75
2021/05/12 08:22:09;;;;;;;12.95;5.60;;;17.70;65.30;;;;;;5076471;28;20082;-76
2021/05/12 08:24:35;;;;;;;13.13;5.13;;;17.70;64.10;;;;;;5076258;28;20024;-75
2021/05/12 08:27:06;;;;;;;11.57;5.78;;;17.40;64.30;;;;;;5076396;28;20020;-75
2021/05/12 08:29:36;;;;;;;11.65;5.18;;;17.50;65.20;;;;;;5076094;28;20028;-76
2021/05/12 08:32:04;;;;;;;10.15;5.18;;;17.70;65.50;;;;;;5041960;28;20034;-76
2021/05/12 08:34:31;;;;;;;13.32;5.90;;;18.00;64.40;;;;;;5085018;28;20051;-76
2021/05/12 08:36:56;;;;;;;20.77;6.57;;;18.10;63.60;;;;;;5078149;28;20060;-76
2021/05/12 08:39:22;;;;;;;10.95;5.18;;;18.20;63.80;;;;;;5096434;28;20055;-76
2021/05/12 08:41:50;;;;;;;8.90;4.20;;;18.30;61.70;;;;;;5095398;28;20032;-76
2021/05/12 08:44:16;;;;;;;13.05;4.43;;;18.40;59.80;;;;;;5096083;28;20105;-76
2021/05/12 08:46:44;;;;;;;11.07;4.68;;;18.50;60.70;;;;;;5078347;28;20036;-76
2021/05/12 08:49:10;;;;;;;11.73;4.37;;;18.80;60.90;;;;;;5089486;28;20048;-75
2021/05/12 08:51:39;;;;;;;12.13;4.90;;;19.00;60.80;;;;;;5075939;28;20620;-75
2021/05/12 08:54:06;;;;;;;13.57;5.00;;;19.00;59.90;;;;;;5075802;28;20032;-75
2021/05/12 08:56:32;;;;;;;14.23;4.70;;;19.00;60.50;;;;;;5075869;28;20050;-75
2021/05/12 08:58:59;;;;;;;9.65;4.80;;;19.20;59.30;;;;;;5058982;28;20477;-76
2021/05/12 09:01:25;;;;;;;12.10;4.93;;;19.40;58.40;;;;;;5075802;28;20029;-76
2021/05/12 09:03:51;;;;;;;11.63;5.13;;;19.50;58.70;;;;;;5075739;28;20107;-76
2021/05/12 09:06:18;;;;;;;10.63;4.53;;;19.70;58.40;;;;;;5087211;28;20445;-75
2021/05/12 09:08:47;;;;;;;11.50;4.43;;;19.80;58.00;;;;;;5095927;28;20054;-76
2021/05/12 09:11:12;;;;;;;;;;;19.90;56.50;;;;;;5096241;28;20059;-75
2021/05/12 09:13:39;;;;;;;12.48;4.35;;;19.80;56.00;;;;;;5095688;28;19951;-76
2021/05/12 09:16:21;;;;;;;10.57;3.60;;;19.80;56.20;;;;;;5095763;28;20034;-76
2021/05/12 09:18:59;;;;;;;9.02;3.15;;;19.70;56.70;;;;;;5077526;28;20115;-75
2021/05/12 09:21:40;;;;;;;7.93;3.50;;;19.50;56.40;;;;;;5095460;28;20031;-76
2021/05/12 09:24:23;;;;;;;8.27;3.70;;;19.20;57.20;;;;;;5078364;28;20036;-75
2021/05/12 09:26:52;;;;;;;7.75;3.92;;;18.90;58.10;;;;;;5074023;28;20037;-76
2021/05/12 09:29:41;;;;;;;12.82;3.75;;;18.80;58.10;;;;;;5057165;28;20085;-76
2021/05/12 09:32:12;;;;;;;11.33;3.97;;;18.80;59.10;;;;;;5075070;28;20567;-75
2021/05/12 09:34:56;;;;;;;9.65;3.25;;;19.10;57.70;;;;;;5075115;28;20084;-76
2021/05/12 09:37:22;;;;;;;8.85;3.33;;;19.50;57.50;;;;;;5074961;28;20500;-76
2021/05/12 09:39:51;;;;;;;8.30;4.00;;;19.80;57.00;;;;;;5102230;28;20486;-75
2021/05/12 09:42:21;;;;;;;11.52;3.97;;;20.00;56.60;;;;;;5077138;28;20115;-76
2021/05/12 09:44:47;;;;;;;10.23;3.58;;;19.80;56.60;;;;;;5095097;28;20048;-76
2021/05/12 09:47:33;;;;;;;11.70;3.92;;;19.40;56.60;;;;;;5073175;28;20024;-76
2021/05/12 09:49:58;;;;;;;10.10;4.00;;;19.00;57.60;;;;;;5074366;28;20040;-76
2021/05/12 09:52:30;;;;;;;7.03;3.78;;;18.60;59.20;;;;;;5074803;28;20036;-75
2021/05/12 09:55:00;;;;;;;10.65;3.65;;;18.60;59.90;;;;;;5084737;28;20042;-75
2021/05/12 09:57:26;;;;;;;8.25;3.20;;;18.90;59.00;;;;;;5081808;28;20043;-75
2021/05/12 09:59:52;;;;;;;10.57;3.33;;;19.20;56.60;;;;;;5082675;28;20035;-76
2021/05/12 10:02:17;;;;;;;9.18;3.80;;;19.50;55.90;;;;;;5076787;28;20385;-76
2021/05/12 10:04:46;;;;;;;11.40;3.47;;;19.90;55.30;;;;;;5058145;28;20029;-76
2021/05/12 10:07:24;;;;;;;6.90;3.60;;;20.30;55.10;;;;;;5074375;28;20021;-75
2021/05/12 10:09:54;;;;;;;7.65;3.65;;;20.70;55.20;;;;;;5068098;28;20120;-76
2021/05/12 10:12:29;;;;;;;9.25;3.30;;;20.80;53.00;;;;;;5056674;28;20438;-76
2021/05/12 10:14:56;;;;;;;6.80;3.65;;;20.70;52.90;;;;;;5079261;28;20023;-76
2021/05/12 10:17:23;;;;;;;9.25;3.95;;;20.60;53.60;;;;;;5083277;28;20056;-75
2021/05/12 10:19:50;;;;;;;8.10;3.80;;;20.60;53.50;;;;;;5039792;28;20033;-75
2021/05/12 10:22:18;;;;;;;12.05;4.05;;;20.30;53.50;;;;;;5056429;28;20020;-76
2021/05/12 10:24:46;;;;;;;9.20;3.57;;;19.90;54.30;;;;;;5077306;28;20024;-76
2021/05/12 10:27:15;;;;;;;7.40;3.83;;;19.50;55.00;;;;;;5076172;28;20473;-76
2021/05/12 10:29:47;;;;;;;8.38;3.50;;;19.20;55.40;;;;;;5094225;28;20028;-76
2021/05/12 10:32:27;;;;;;;7.65;4.10;;;18.90;56.10;;;;;;5076435;28;20101;-76
2021/05/12 10:35:03;;;;;;;12.25;2.95;;;19.00;55.60;;;;;;5073925;28;20061;-75
2021/05/12 10:37:35;;;;;;;7.13;2.60;;;19.40;54.50;;;;;;5073813;28;20020;-76
2021/05/12 10:40:06;;;;;;;8.73;3.20;;;19.80;53.60;;;;;;5073357;28;20060;-75
2021/05/12 10:45:34;;;;;;;8.27;3.00;;;20.50;51.20;;;;;;5073544;28;20048;-76
2021/05/12 10:48:01;;;;;;;6.93;2.65;;;20.80;51.40;;;;;;5074634;28;20024;-76
2021/05/12 10:50:46;;;;;;;6.35;3.40;;;20.90;51.00;;;;;;5055606;28;20527;-76
2021/05/12 10:53:19;;;;;;;7.20;3.38;;;20.70;50.70;;;;;;5073380;28;20359;-76
2021/05/12 10:56:00;;;;;;;9.68;3.00;;;20.30;51.00;;;;;;5080697;28;20604;-76
2021/05/12 10:58:40;;;;;;;9.52;2.85;;;19.90;52.10;;;;;;5091587;28;20527;-75
2021/05/12 11:01:10;;;;;;;5.25;1.67;;;19.90;53.10;;;;;;5089416;28;20129;-76
2021/05/12 11:03:51;;;;;;;7.25;2.70;;;20.20;51.70;;;;;;5074557;28;20554;-75
2021/05/12 11:06:19;;;;;;;6.20;2.42;;;20.50;51.20;;;;;;5091123;28;20028;-76
2021/05/12 11:09:08;;;;;;;9.50;2.73;;;20.50;50.90;;;;;;5072868;28;20036;-75
2021/05/12 11:11:52;;;;;;;6.93;2.60;;;20.50;49.10;;;;;;5075359;28;20024;-76
2021/05/12 11:14:22;;;;;;;5.65;2.53;;;20.30;50.10;;;;;;5092980;28;20028;-76
2021/05/12 11:17:09;;;;;;;8.40;2.38;;;20.10;51.20;;;;;;5092683;28;20028;-76
2021/05/12 11:19:45;;;;;;;6.40;1.92;;;19.80;51.50;;;;;;5073370;28;20047;-75
2021/05/12 11:22:42;;;;;;;7.18;2.28;;;19.80;51.50;;;;;;5073011;28;20020;-75
2021/05/12 11:33:33;;;;;;;8.70;1.90;;;20.00;50.80;;;;;;5091060;28;20487;-76
2021/05/12 11:36:07;;;;;;;6.38;1.42;;;20.10;51.10;;;;;;5079542;28;20115;-76
2021/05/12 11:38:33;;;;;;;6.18;2.00;;;20.10;51.40;;;;;;5074451;28;20093;-76
2021/05/12 11:41:04;;;;;;;6.70;1.85;;;20.20;50.80;;;;;;5076854;28;20024;-76
2021/05/12 11:43:46;;;;;;;4.93;1.50;;;20.20;49.00;;;;;;5074391;28;20077;-76
2021/05/12 11:46:37;;;;;;;7.30;1.27;;;20.10;49.60;;;;;;5092674;28;20040;-75
2021/05/12 11:49:09;;;;;;;3.88;1.30;;;19.90;49.90;;;;;;5085469;28;20405;-76
2021/05/12 11:51:41;;;;;;;6.38;1.35;;;19.70;50.40;;;;;;5092211;28;20016;-76
2021/05/12 11:54:24;;;;;;;4.68;1.55;;;19.60;50.70;;;;;;5092945;28;20028;-75
2021/05/12 11:56:51;;;;;;;6.57;1.30;;;19.80;50.80;;;;;;5093012;28;20103;-76
2021/05/12 11:59:21;;;;;;;5.38;1.50;;;20.20;49.90;;;;;;5090898;28;20055;-76
2021/05/12 12:01:56;;;;;;;8.60;1.73;;;20.60;48.10;;;;;;5074642;28;20477;-75
2021/05/12 12:06:51;;;;;;;;;;;20.50;47.90;;;;;;5075588;28;20024;-76
2021/05/12 12:09:18;;;;;;;7.25;1.63;;;20.20;48.50;;;;;;5092976;28;20379;-76
2021/05/12 12:11:45;;;;;;;5.72;1.70;;;20.00;48.90;;;;;;5092951;28;20108;-76
2021/05/12 12:14:11;;;;;;;7.07;1.73;;;19.80;49.00;;;;;;5058355;28;20086;-76
2021/05/12 12:16:43;;;;;;;5.43;1.42;;;19.70;49.00;;;;;;5089076;28;20070;-76
2021/05/12 12:19:14;;;;;;;5.68;1.30;;;20.00;48.50;;;;;;5091914;28;20055;-76
2021/05/12 12:21:42;;;;;;;6.65;1.52;;;20.60;48.30;;;;;;5077011;28;20044;-78
2021/05/12 12:24:11;;;;;;;;;;;20.90;47.80;;;;;;5073952;28;20028;-77
2021/05/12 12:26:37;;;;;;;6.80;1.55;;;21.00;47.90;;;;;;5090470;28;19916;-76
2021/05/12 12:29:06;;;;;;;6.97;1.40;;;20.80;48.20;;;;;;5054771;28;20033;-78
2021/05/12 12:31:45;;;;;;;6.63;1.33;;;20.70;48.40;;;;;;5089888;28;20048;-76
2021/05/12 12:34:15;;;;;;;;;;;20.70;48.40;;;;;;5083384;28;20170;-77
2021/05/12 12:37:09;;;;;;;4.93;1.52;;;20.80;48.50;;;;;;5075458;28;19909;-77
2021/05/12 12:39:38;;;;;;;8.00;1.40;;;21.20;48.60;;;;;;5088383;28;20028;-77
2021/05/12 12:42:05;;;;;;;6.45;1.20;;;21.30;48.10;;;;;;5091661;28;20394;-77
2021/05/12 12:44:39;;;;;;;7.25;1.65;;;21.40;48.30;;;;;;5075409;28;20036;-76
2021/05/12 12:47:12;;;;;;;6.35;1.40;;;21.60;47.40;;;;;;5108434;28;20036;-76
2021/05/12 12:49:47;;;;;;;6.70;1.90;;;21.80;46.70;;;;;;5073721;28;20028;-77
2021/05/12 12:52:15;;;;;;;6.43;1.70;;;22.10;45.10;;;;;;5101669;28;20054;-77
2021/05/12 12:54:49;;;;;;;6.63;1.55;;;22.20;45.80;;;;;;5056338;28;20032;-77